sensor_id;sensor_type;location;lat;lon;timestamp;pressure;altitude;pressure_sealevel;temperature;humidity
72055;BME280;59936;51.490;5.436;2022-08-01T00:00:07;101383.81;;;18.86;100.00
72055;BME280;59936;51.490;5.436;2022-08-01T00:00:13;101385.41;;;18.89;100.00
72055;BME280;59936;51.490;5.436;2022-08-01T00:00:19;101388.03;;;18.89;100.00
72055;BME280;59936;51.490;5.436;2022-08-01T00:00:24;101386.56;;;18.85;100.00
72055;BME280;59936;51.490;5.436;2022-08-01T00:00:30;101385.41;;;18.89;100.00
72055;BME280;59936;51.490;5.436;2022-08-01T00:00:36;101387.19;;;18.88;100.00
72055;BME280;59936;51.490;5.436;2022-08-01T00:00:42;101387.94;;;18.90;100.00
72055;BME280;59936;51.490;5.436;2022-08-01T00:00:47;101385.28;;;18.90;100.00
72055;BME280;59936;51.490;5.436;2022-08-01T00:00:53;101388.03;;;18.89;100.00
72055;BME280;59936;51.490;5.436;2022-08-01T00:00:58;101388.44;;;18.83;100.00
72055;BME280;59936;51.490;5.436;2022-08-01T00:01:03;101393.94;;;18.79;100.00
72055;BME280;59936;51.490;5.436;2022-08-01T00:01:12;101385.09;;;18.81;100.00
72055;BME280;59936;51.490;5.436;2022-08-01T00:01:17;101391.00;;;18.84;100.00
72055;BME280;59936;51.490;5.436;2022-08-01T00:01:23;101383.91;;;18.85;100.00
72055;BME280;59936;51.490;5.436;2022-08-01T00:01:29;101384.63;;;18.87;100.00
72055;BME280;59936;51.490;5.436;2022-08-01T00:01:35;101385.09;;;18.81;100.00
72055;BME280;59936;51.490;5.436;2022-08-01T00:01:40;101383.06;;;18.71;100.00
72055;BME280;59936;51.490;5.436;2022-08-01T00:01:46;101390.56;;;18.77;100.00
72055;BME280;59936;51.490;5.436;2022-08-01T00:01:51;101386.75;;;18.82;100.00
72055;BME280;59936;51.490;5.436;2022-08-01T00:01:57;101382.19;;;18.84;100.00
72055;BME280;59936;51.490;5.436;2022-08-01T00:02:02;101387.19;;;18.75;100.00
72055;BME280;59936;51.490;5.436;2022-08-01T00:02:07;101387.38;;;18.72;100.00
72055;BME280;59936;51.490;5.436;2022-08-01T00:02:13;101387.28;;;18.74;100.00
72055;BME280;59936;51.490;5.436;2022-08-01T00:02:18;101387.81;;;18.79;100.00
72055;BME280;59936;51.490;5.436;2022-08-01T00:02:23;101395.66;;;18.81;100.00
72055;BME280;59936;51.490;5.436;2022-08-01T00:02:29;101388.44;;;18.83;100.00
72055;BME280;59936;51.490;5.436;2022-08-01T00:02:36;101381.28;;;18.85;100.00
72055;BME280;59936;51.490;5.436;2022-08-01T00:02:42;101392.56;;;18.87;100.00
72055;BME280;59936;51.490;5.436;2022-08-01T00:02:48;101387.72;;;18.81;100.00
72055;BME280;59936;51.490;5.436;2022-08-01T00:02:53;101385.69;;;18.71;100.00
72055;BME280;59936;51.490;5.436;2022-08-01T00:02:59;101390.97;;;18.71;100.00
72055;BME280;59936;51.490;5.436;2022-08-01T00:03:04;101390.97;;;18.71;100.00
72055;BME280;59936;51.490;5.436;2022-08-01T00:03:10;101383.81;;;18.73;100.00
72055;BME280;59936;51.490;5.436;2022-08-01T00:03:15;101386.56;;;18.72;100.00
72055;BME280;59936;51.490;5.436;2022-08-01T00:03:21;101392.47;;;18.75;100.00
72055;BME280;59936;51.490;5.436;2022-08-01T00:03:26;101387.94;;;18.77;100.00
72055;BME280;59936;51.490;5.436;2022-08-01T00:03:31;101386.88;;;18.80;100.00
72055;BME280;59936;51.490;5.436;2022-08-01T00:03:37;101387.94;;;18.77;100.00
72055;BME280;59936;51.490;5.436;2022-08-01T00:03:42;101387.94;;;18.77;100.00
72055;BME280;59936;51.490;5.436;2022-08-01T00:03:47;101393.94;;;18.79;100.00
72055;BME280;59936;51.490;5.436;2022-08-01T00:03:53;101390.38;;;18.81;100.00
72055;BME280;59936;51.490;5.436;2022-08-01T00:03:58;101387.59;;;18.82;100.00
72055;BME280;59936;51.490;5.436;2022-08-01T00:04:04;101387.72;;;18.81;100.00
72055;BME280;59936;51.490;5.436;2022-08-01T00:04:09;101388.66;;;18.79;100.00
72055;BME280;59936;51.490;5.436;2022-08-01T00:04:15;101388.25;;;18.73;100.00
72055;BME280;59936;51.490;5.436;2022-08-01T00:04:20;101389.50;;;18.67;100.00
72055;BME280;59936;51.490;5.436;2022-08-01T00:04:25;101383.50;;;18.65;100.00
72055;BME280;59936;51.490;5.436;2022-08-01T00:04:31;101391.09;;;18.70;100.00
72055;BME280;59936;51.490;5.436;2022-08-01T00:04:36;101386.56;;;18.72;100.00
72055;BME280;59936;51.490;5.436;2022-08-01T00:04:42;101384.53;;;18.75;100.00
72055;BME280;59936;51.490;5.436;2022-08-01T00:04:47;101382.75;;;18.76;100.00
72055;BME280;59936;51.490;5.436;2022-08-01T00:04:55;101380.72;;;18.79;100.00
72055;BME280;59936;51.490;5.436;2022-08-01T00:05:00;101388.66;;;18.79;100.00
72055;BME280;59936;51.490;5.436;2022-08-01T00:05:07;101382.44;;;18.81;100.00
72055;BME280;59936;51.490;5.436;2022-08-01T00:05:13;101396.38;;;18.83;100.00
72055;BME280;59936;51.490;5.436;2022-08-01T00:05:19;101390.13;;;18.84;100.00
72055;BME280;59936;51.490;5.436;2022-08-01T00:05:24;101383.91;;;18.85;100.00
72055;BME280;59936;51.490;5.436;2022-08-01T00:05:30;101379.34;;;18.87;100.00
72055;BME280;59936;51.490;5.436;2022-08-01T00:05:35;101381.03;;;18.88;100.00
72055;BME280;59936;51.490;5.436;2022-08-01T00:05:40;101378.28;;;18.89;100.00
72055;BME280;59936;51.490;5.436;2022-08-01T00:05:48;101386.13;;;18.91;100.00
72055;BME280;59936;51.490;5.436;2022-08-01T00:05:53;101388.75;;;18.91;100.00
72055;BME280;59936;51.490;5.436;2022-08-01T00:05:59;101390.44;;;18.92;100.00
72055;BME280;59936;51.490;5.436;2022-08-01T00:06:04;101384.22;;;18.93;100.00
72055;BME280;59936;51.490;5.436;2022-08-01T00:06:09;101385.91;;;18.94;100.00
72055;BME280;59936;51.490;5.436;2022-08-01T00:06:15;101380.63;;;18.94;100.00
72055;BME280;59936;51.490;5.436;2022-08-01T00:06:20;101386.75;;;18.95;100.00
72055;BME280;59936;51.490;5.436;2022-08-01T00:06:25;101387.69;;;18.94;100.00
72055;BME280;59936;51.490;5.436;2022-08-01T00:06:31;101389.63;;;18.91;100.00
72055;BME280;59936;51.490;5.436;2022-08-01T00:06:36;101387.78;;;18.92;100.00
72055;BME280;59936;51.490;5.436;2022-08-01T00:06:42;101384.22;;;18.93;100.00
72055;BME280;59936;51.490;5.436;2022-08-01T00:06:47;101381.03;;;18.88;100.00
72055;BME280;59936;51.490;5.436;2022-08-01T00:06:52;101388.56;;;18.81;100.00
72055;BME280;59936;51.490;5.436;2022-08-01T00:06:58;101393.53;;;18.86;100.00
72055;BME280;59936;51.490;5.436;2022-08-01T00:07:03;101390.13;;;18.84;100.00
72055;BME280;59936;51.490;5.436;2022-08-01T00:07:09;101391.28;;;18.79;100.00
72055;BME280;59936;51.490;5.436;2022-08-01T00:07:14;101382.84;;;18.74;100.00
72055;BME280;59936;51.490;5.436;2022-08-01T00:07:19;101390.56;;;18.77;100.00
72055;BME280;59936;51.490;5.436;2022-08-01T00:07:25;101386.75;;;18.82;100.00
72055;BME280;59936;51.490;5.436;2022-08-01T00:07:31;101385.59;;;18.86;100.00
72055;BME280;59936;51.490;5.436;2022-08-01T00:07:37;101381.88;;;18.88;100.00
72055;BME280;59936;51.490;5.436;2022-08-01T00:07:43;101392.38;;;18.90;100.00
72055;BME280;59936;51.490;5.436;2022-08-01T00:07:49;101384.44;;;18.90;100.00
72055;BME280;59936;51.490;5.436;2022-08-01T00:07:54;101381.69;;;18.91;100.00
72055;BME280;59936;51.490;5.436;2022-08-01T00:08:00;101385.06;;;18.94;100.00
72055;BME280;59936;51.490;5.436;2022-08-01T00:08:05;101384.94;;;18.95;100.00
72055;BME280;59936;51.490;5.436;2022-08-01T00:08:10;101382.31;;;18.95;100.00
72055;BME280;59936;51.490;5.436;2022-08-01T00:08:16;101394.59;;;18.96;100.00
72055;BME280;59936;51.490;5.436;2022-08-01T00:08:21;101391.81;;;18.98;100.00
72055;BME280;59936;51.490;5.436;2022-08-01T00:08:26;101386.66;;;18.96;100.00
72055;BME280;59936;51.490;5.436;2022-08-01T00:08:32;101386.75;;;18.95;100.00
72055;BME280;59936;51.490;5.436;2022-08-01T00:08:37;101383.16;;;18.96;100.00
72055;BME280;59936;51.490;5.436;2022-08-01T00:08:42;101386.13;;;18.91;100.00
72055;BME280;59936;51.490;5.436;2022-08-01T00:08:48;101391.84;;;18.85;100.00
72055;BME280;59936;51.490;5.436;2022-08-01T00:08:53;101387.28;;;18.87;100.00
72055;BME280;59936;51.490;5.436;2022-08-01T00:08:58;101389.72;;;18.90;100.00
72055;BME280;59936;51.490;5.436;2022-08-01T00:09:04;101393.09;;;18.92;100.00
72055;BME280;59936;51.490;5.436;2022-08-01T00:09:09;101385.16;;;18.92;100.00
72055;BME280;59936;51.490;5.436;2022-08-01T00:09:14;101387.06;;;18.90;100.00
72055;BME280;59936;51.490;5.436;2022-08-01T00:09:20;101390.56;;;18.90;100.00
72055;BME280;59936;51.490;5.436;2022-08-01T00:09:25;101391.41;;;18.91;100.00
72055;BME280;59936;51.490;5.436;2022-08-01T00:09:30;101385.28;;;18.90;100.00
72055;BME280;59936;51.490;5.436;2022-08-01T00:09:36;101386.31;;;18.88;100.00
72055;BME280;59936;51.490;5.436;2022-08-01T00:09:41;101386.56;;;18.85;100.00
72055;BME280;59936;51.490;5.436;2022-08-01T00:09:46;101384.63;;;18.87;100.00
72055;BME280;59936;51.490;5.436;2022-08-01T00:09:52;101390.78;;;18.74;100.00
72055;BME280;59936;51.490;5.436;2022-08-01T00:09:57;101379.88;;;18.66;100.00
72055;BME280;59936;51.490;5.436;2022-08-01T00:10:04;101389.06;;;18.60;100.00
72055;BME280;59936;51.490;5.436;2022-08-01T00:10:14;101382.31;;;18.69;100.00
72055;BME280;59936;51.490;5.436;2022-08-01T00:10:21;101388.13;;;18.74;100.00
72055;BME280;59936;51.490;5.436;2022-08-01T00:10:26;101387.19;;;18.75;100.00
72055;BME280;59936;51.490;5.436;2022-08-01T00:10:31;101386.97;;;18.78;100.00
72055;BME280;59936;51.490;5.436;2022-08-01T00:10:37;101383.59;;;18.76;100.00
72055;BME280;59936;51.490;5.436;2022-08-01T00:10:42;101384.72;;;18.72;100.00
72055;BME280;59936;51.490;5.436;2022-08-01T00:10:47;101387.19;;;18.75;100.00
72055;BME280;59936;51.490;5.436;2022-08-01T00:10:53;101385.19;;;18.79;100.00
72055;BME280;59936;51.490;5.436;2022-08-01T00:10:58;101385.28;;;18.77;100.00
72055;BME280;59936;51.490;5.436;2022-08-01T00:11:03;101383.91;;;18.72;100.00
72055;BME280;59936;51.490;5.436;2022-08-01T00:11:09;101384.22;;;18.67;100.00
72055;BME280;59936;51.490;5.436;2022-08-01T00:11:14;101383.38;;;18.66;100.00
72055;BME280;59936;51.490;5.436;2022-08-01T00:11:19;101380.41;;;18.71;100.00
72055;BME280;59936;51.490;5.436;2022-08-01T00:11:26;101382.09;;;18.72;100.00
72055;BME280;59936;51.490;5.436;2022-08-01T00:11:31;101390.16;;;18.71;100.00
72055;BME280;59936;51.490;5.436;2022-08-01T00:11:37;101380.41;;;18.71;100.00
72055;BME280;59936;51.490;5.436;2022-08-01T00:11:42;101385.59;;;18.73;100.00
72055;BME280;59936;51.490;5.436;2022-08-01T00:11:47;101387.19;;;18.75;100.00
72055;BME280;59936;51.490;5.436;2022-08-01T00:11:53;101386.97;;;18.78;100.00
72055;BME280;59936;51.490;5.436;2022-08-01T00:11:58;101385.91;;;18.81;100.00
72055;BME280;59936;51.490;5.436;2022-08-01T00:12:04;101386.56;;;18.85;100.00
72055;BME280;59936;51.490;5.436;2022-08-01T00:12:10;101382.97;;;18.86;100.00
72055;BME280;59936;51.490;5.436;2022-08-01T00:12:15;101385.50;;;18.87;100.00
72055;BME280;59936;51.490;5.436;2022-08-01T00:12:20;101387.19;;;18.88;100.00
72055;BME280;59936;51.490;5.436;2022-08-01T00:12:26;101386.31;;;18.88;100.00
72055;BME280;59936;51.490;5.436;2022-08-01T00:12:31;101386.22;;;18.89;100.00
72055;BME280;59936;51.490;5.436;2022-08-01T00:12:36;101377.22;;;18.92;100.00
72055;BME280;59936;51.490;5.436;2022-08-01T00:12:43;101386.13;;;18.91;100.00
72055;BME280;59936;51.490;5.436;2022-08-01T00:12:50;101381.03;;;18.88;100.00
72055;BME280;59936;51.490;5.436;2022-08-01T00:12:55;101381.03;;;18.88;100.00
72055;BME280;59936;51.490;5.436;2022-08-01T00:13:00;101390.13;;;18.84;100.00
72055;BME280;59936;51.490;5.436;2022-08-01T00:13:06;101391.84;;;18.85;100.00
72055;BME280;59936;51.490;5.436;2022-08-01T00:13:11;101387.59;;;18.82;100.00
72055;BME280;59936;51.490;5.436;2022-08-01T00:13:16;101388.88;;;18.76;100.00
72055;BME280;59936;51.490;5.436;2022-08-01T00:13:22;101383.91;;;18.72;100.00
72055;BME280;59936;51.490;5.436;2022-08-01T00:13:27;101383.81;;;18.73;100.00
72055;BME280;59936;51.490;5.436;2022-08-01T00:13:33;101383.81;;;18.73;100.00
72055;BME280;59936;51.490;5.436;2022-08-01T00:13:38;101387.63;;;18.69;100.00
72055;BME280;59936;51.490;5.436;2022-08-01T00:13:43;101385.28;;;18.64;100.00
72055;BME280;59936;51.490;5.436;2022-08-01T00:13:48;101386.97;;;18.65;100.00
72055;BME280;59936;51.490;5.436;2022-08-01T00:13:54;101388.78;;;18.65;100.00
72055;BME280;59936;51.490;5.436;2022-08-01T00:13:59;101393.97;;;18.66;100.00
72055;BME280;59936;51.490;5.436;2022-08-01T00:14:05;101385.78;;;18.70;100.00
72055;BME280;59936;51.490;5.436;2022-08-01T00:14:10;101389.50;;;18.67;100.00
72055;BME280;59936;51.490;5.436;2022-08-01T00:14:16;101386.97;;;18.65;100.00
72055;BME280;59936;51.490;5.436;2022-08-01T00:14:21;101385.91;;;18.68;100.00
72055;BME280;59936;51.490;5.436;2022-08-01T00:14:26;101382.09;;;18.72;100.00
72055;BME280;59936;51.490;5.436;2022-08-01T00:14:32;101392.47;;;18.75;100.00
72055;BME280;59936;51.490;5.436;2022-08-01T00:14:37;101388.75;;;18.78;100.00
72055;BME280;59936;51.490;5.436;2022-08-01T00:14:43;101390.38;;;18.81;100.00
72055;BME280;59936;51.490;5.436;2022-08-01T00:14:48;101386.97;;;18.78;100.00
72055;BME280;59936;51.490;5.436;2022-08-01T00:14:54;101390.56;;;18.77;100.00
72055;BME280;59936;51.490;5.436;2022-08-01T00:14:59;101392.47;;;18.75;100.00
72055;BME280;59936;51.490;5.436;2022-08-01T00:15:07;101390.56;;;18.77;100.00
72055;BME280;59936;51.490;5.436;2022-08-01T00:15:16;101388.03;;;18.76;100.00
72055;BME280;59936;51.490;5.436;2022-08-01T00:15:22;101394.91;;;18.78;100.00
72055;BME280;59936;51.490;5.436;2022-08-01T00:15:27;101390.38;;;18.81;100.00
72055;BME280;59936;51.490;5.436;2022-08-01T00:15:33;101395.41;;;18.84;100.00
72055;BME280;59936;51.490;5.436;2022-08-01T00:15:38;101387.59;;;18.82;100.00
72055;BME280;59936;51.490;5.436;2022-08-01T00:15:44;101389.72;;;18.77;100.00
72055;BME280;59936;51.490;5.436;2022-08-01T00:15:49;101387.94;;;18.77;100.00
72055;BME280;59936;51.490;5.436;2022-08-01T00:15:54;101396.59;;;18.79;100.00
72055;BME280;59936;51.490;5.436;2022-08-01T00:16:00;101390.38;;;18.81;100.00
72055;BME280;59936;51.490;5.436;2022-08-01T00:16:05;101386.13;;;18.78;100.00
72055;BME280;59936;51.490;5.436;2022-08-01T00:16:11;101382.94;;;18.73;100.00
72055;BME280;59936;51.490;5.436;2022-08-01T00:16:16;101390.25;;;18.69;100.00
72055;BME280;59936;51.490;5.436;2022-08-01T00:16:22;101382.44;;;18.68;100.00
72055;BME280;59936;51.490;5.436;2022-08-01T00:16:27;101382.72;;;18.63;100.00
72055;BME280;59936;51.490;5.436;2022-08-01T00:16:33;101388.31;;;18.58;100.00
72055;BME280;59936;51.490;5.436;2022-08-01T00:16:38;101383.69;;;18.62;100.00
72055;BME280;59936;51.490;5.436;2022-08-01T00:16:43;101388.22;;;18.60;100.00
72055;BME280;59936;51.490;5.436;2022-08-01T00:16:49;101392.44;;;18.62;100.00
72055;BME280;59936;51.490;5.436;2022-08-01T00:16:54;101387.81;;;18.66;100.00
72055;BME280;59936;51.490;5.436;2022-08-01T00:17:00;101390.25;;;18.69;100.00
72055;BME280;59936;51.490;5.436;2022-08-01T00:17:05;101385.78;;;18.70;100.00
72055;BME280;59936;51.490;5.436;2022-08-01T00:17:11;101386.56;;;18.72;100.00
72055;BME280;59936;51.490;5.436;2022-08-01T00:17:16;101393.53;;;18.73;100.00
72055;BME280;59936;51.490;5.436;2022-08-01T00:17:21;101384.88;;;18.71;100.00
72055;BME280;59936;51.490;5.436;2022-08-01T00:17:27;101394.78;;;18.67;100.00
72055;BME280;59936;51.490;5.436;2022-08-01T00:17:32;101391.19;;;18.68;100.00
72055;BME280;59936;51.490;5.436;2022-08-01T00:17:38;101388.03;;;18.63;100.00
72055;BME280;59936;51.490;5.436;2022-08-01T00:17:44;101391.53;;;18.63;100.00
72055;BME280;59936;51.490;5.436;2022-08-01T00:17:49;101380.00;;;18.64;100.00
72055;BME280;59936;51.490;5.436;2022-08-01T00:17:55;101387.16;;;18.62;100.00
72055;BME280;59936;51.490;5.436;2022-08-01T00:18:00;101387.06;;;18.64;100.00
72055;BME280;59936;51.490;5.436;2022-08-01T00:18:06;101393.00;;;18.68;100.00
72055;BME280;59936;51.490;5.436;2022-08-01T00:18:11;101384.88;;;18.71;100.00
72055;BME280;59936;51.490;5.436;2022-08-01T00:18:16;101383.81;;;18.73;100.00
72055;BME280;59936;51.490;5.436;2022-08-01T00:18:22;101392.47;;;18.75;100.00
72055;BME280;59936;51.490;5.436;2022-08-01T00:18:27;101388.88;;;18.76;100.00
72055;BME280;59936;51.490;5.436;2022-08-01T00:18:33;101385.19;;;18.79;100.00
72055;BME280;59936;51.490;5.436;2022-08-01T00:18:40;101386.00;;;18.79;100.00
72055;BME280;59936;51.490;5.436;2022-08-01T00:18:45;101391.53;;;18.76;100.00
72055;BME280;59936;51.490;5.436;2022-08-01T00:18:51;101398.41;;;18.79;100.00
72055;BME280;59936;51.490;5.436;2022-08-01T00:18:57;101393.13;;;18.79;100.00
72055;BME280;59936;51.490;5.436;2022-08-01T00:19:02;101390.38;;;18.81;100.00
72055;BME280;59936;51.490;5.436;2022-08-01T00:19:08;101389.31;;;18.83;100.00
72055;BME280;59936;51.490;5.436;2022-08-01T00:19:13;101383.81;;;18.86;100.00
72055;BME280;59936;51.490;5.436;2022-08-01T00:19:19;101387.28;;;18.87;100.00
72055;BME280;59936;51.490;5.436;2022-08-01T00:19:24;101387.28;;;18.87;100.00
72055;BME280;59936;51.490;5.436;2022-08-01T00:19:29;101394.50;;;18.85;100.00
72055;BME280;59936;51.490;5.436;2022-08-01T00:19:35;101392.88;;;18.82;100.00
72055;BME280;59936;51.490;5.436;2022-08-01T00:19:40;101394.19;;;18.76;100.00
72055;BME280;59936;51.490;5.436;2022-08-01T00:19:46;101390.97;;;18.71;100.00
72055;BME280;59936;51.490;5.436;2022-08-01T00:19:51;101391.94;;;18.70;100.00
72055;BME280;59936;51.490;5.436;2022-08-01T00:19:57;101391.75;;;18.73;100.00
72055;BME280;59936;51.490;5.436;2022-08-01T00:20:04;101389.09;;;18.73;100.00
72055;BME280;59936;51.490;5.436;2022-08-01T00:20:13;101390.03;;;18.72;100.00
72055;BME280;59936;51.490;5.436;2022-08-01T00:20:19;101394.19;;;18.76;100.00
72055;BME280;59936;51.490;5.436;2022-08-01T00:20:24;101390.56;;;18.77;100.00
72055;BME280;59936;51.490;5.436;2022-08-01T00:20:30;101386.97;;;18.78;100.00
72055;BME280;59936;51.490;5.436;2022-08-01T00:20:35;101394.28;;;18.75;100.00
72055;BME280;59936;51.490;5.436;2022-08-01T00:20:41;101390.78;;;18.74;100.00
72055;BME280;59936;51.490;5.436;2022-08-01T00:20:46;101385.50;;;18.74;100.00
72055;BME280;59936;51.490;5.436;2022-08-01T00:20:51;101384.72;;;18.72;100.00
72055;BME280;59936;51.490;5.436;2022-08-01T00:20:57;101387.19;;;18.75;100.00
72055;BME280;59936;51.490;5.436;2022-08-01T00:21:03;101392.56;;;18.74;100.00
72055;BME280;59936;51.490;5.436;2022-08-01T00:21:09;101393.09;;;18.66;100.00
72055;BME280;59936;51.490;5.436;2022-08-01T00:21:14;101402.19;;;18.62;100.00
72055;BME280;59936;51.490;5.436;2022-08-01T00:21:19;101396.91;;;18.62;100.00
72055;BME280;59936;51.490;5.436;2022-08-01T00:21:25;101397.53;;;18.65;100.00
72055;BME280;59936;51.490;5.436;2022-08-01T00:21:30;101397.63;;;18.64;100.00
72055;BME280;59936;51.490;5.436;2022-08-01T00:21:36;101391.63;;;18.62;100.00
72055;BME280;59936;51.490;5.436;2022-08-01T00:21:41;101396.72;;;18.65;100.00
72055;BME280;59936;51.490;5.436;2022-08-01T00:21:46;101389.69;;;18.64;100.00
72055;BME280;59936;51.490;5.436;2022-08-01T00:21:52;101391.41;;;18.65;100.00
72055;BME280;59936;51.490;5.436;2022-08-01T00:21:57;101397.88;;;18.61;100.00
72055;BME280;59936;51.490;5.436;2022-08-01T00:22:02;101389.06;;;18.60;100.00
72055;BME280;59936;51.490;5.436;2022-08-01T00:22:08;101391.41;;;18.65;100.00
72055;BME280;59936;51.490;5.436;2022-08-01T00:22:13;101394.78;;;18.67;100.00
72055;BME280;59936;51.490;5.436;2022-08-01T00:22:19;101400.84;;;18.69;100.00
72055;BME280;59936;51.490;5.436;2022-08-01T00:22:24;101394.59;;;18.70;100.00
72055;BME280;59936;51.490;5.436;2022-08-01T00:22:30;101390.03;;;18.72;100.00
72055;BME280;59936;51.490;5.436;2022-08-01T00:22:37;101395.00;;;18.77;100.00
72055;BME280;59936;51.490;5.436;2022-08-01T00:22:42;101390.56;;;18.77;100.00
72055;BME280;59936;51.490;5.436;2022-08-01T00:22:48;101393.94;;;18.79;100.00
72055;BME280;59936;51.490;5.436;2022-08-01T00:22:53;101392.06;;;18.82;100.00
72055;BME280;59936;51.490;5.436;2022-08-01T00:22:58;101394.69;;;18.82;100.00
72055;BME280;59936;51.490;5.436;2022-08-01T00:23:03;101392.78;;;18.84;100.00
72055;BME280;59936;51.490;5.436;2022-08-01T00:23:09;101398.91;;;18.84;100.00
72055;BME280;59936;51.490;5.436;2022-08-01T00:23:15;101396.47;;;18.81;100.00
72055;BME280;59936;51.490;5.436;2022-08-01T00:23:20;101396.47;;;18.81;100.00
72055;BME280;59936;51.490;5.436;2022-08-01T00:23:25;101394.69;;;18.82;100.00
72055;BME280;59936;51.490;5.436;2022-08-01T00:23:31;101395.41;;;18.84;100.00
72055;BME280;59936;51.490;5.436;2022-08-01T00:23:36;101395.41;;;18.84;100.00
72055;BME280;59936;51.490;5.436;2022-08-01T00:23:42;101391.84;;;18.85;100.00
72055;BME280;59936;51.490;5.436;2022-08-01T00:23:48;101390.38;;;18.81;100.00
72055;BME280;59936;51.490;5.436;2022-08-01T00:23:53;101397.53;;;18.78;100.00
72055;BME280;59936;51.490;5.436;2022-08-01T00:23:59;101397.94;;;18.72;100.00
72055;BME280;59936;51.490;5.436;2022-08-01T00:24:04;101388.69;;;18.66;100.00
72055;BME280;59936;51.490;5.436;2022-08-01T00:24:10;101389.69;;;18.64;100.00
72055;BME280;59936;51.490;5.436;2022-08-01T00:24:15;101390.47;;;18.66;100.00
72055;BME280;59936;51.490;5.436;2022-08-01T00:24:20;101392.16;;;18.67;100.00
72055;BME280;59936;51.490;5.436;2022-08-01T00:24:26;101396.38;;;18.70;100.00
72055;BME280;59936;51.490;5.436;2022-08-01T00:24:31;101394.88;;;18.65;100.00
72055;BME280;59936;51.490;5.436;2022-08-01T00:24:37;101393.41;;;18.61;100.00
72055;BME280;59936;51.490;5.436;2022-08-01T00:24:42;101395.00;;;18.64;100.00
72055;BME280;59936;51.490;5.436;2022-08-01T00:24:47;101389.50;;;18.67;100.00
72055;BME280;59936;51.490;5.436;2022-08-01T00:24:53;101388.34;;;18.71;100.00
72055;BME280;59936;51.490;5.436;2022-08-01T00:24:58;101389.09;;;18.73;100.00
72055;BME280;59936;51.490;5.436;2022-08-01T00:25:04;101393.53;;;18.73;100.00
72055;BME280;59936;51.490;5.436;2022-08-01T00:25:10;101396.47;;;18.68;100.00
72055;BME280;59936;51.490;5.436;2022-08-01T00:25:16;101392.44;;;18.62;100.00
72055;BME280;59936;51.490;5.436;2022-08-01T00:25:21;101393.31;;;18.63;100.00
72055;BME280;59936;51.490;5.436;2022-08-01T00:25:27;101392.25;;;18.65;100.00
72055;BME280;59936;51.490;5.436;2022-08-01T00:25:32;101392.91;;;18.69;100.00
72055;BME280;59936;51.490;5.436;2022-08-01T00:25:37;101397.94;;;18.72;100.00
72055;BME280;59936;51.490;5.436;2022-08-01T00:25:43;101393.31;;;18.76;100.00
72055;BME280;59936;51.490;5.436;2022-08-01T00:25:48;101395.00;;;18.77;100.00
72055;BME280;59936;51.490;5.436;2022-08-01T00:25:53;101393.13;;;18.79;100.00
72055;BME280;59936;51.490;5.436;2022-08-01T00:25:59;101391.19;;;18.81;100.00
72055;BME280;59936;51.490;5.436;2022-08-01T00:26:04;101395.66;;;18.81;100.00
72055;BME280;59936;51.490;5.436;2022-08-01T00:26:09;101391.63;;;18.75;100.00
72055;BME280;59936;51.490;5.436;2022-08-01T00:26:15;101391.84;;;18.72;100.00
72055;BME280;59936;51.490;5.436;2022-08-01T00:26:20;101392.47;;;18.75;100.00
72055;BME280;59936;51.490;5.436;2022-08-01T00:26:26;101393.94;;;18.79;100.00
72055;BME280;59936;51.490;5.436;2022-08-01T00:26:31;101398.16;;;18.82;100.00
72055;BME280;59936;51.490;5.436;2022-08-01T00:26:36;101395.41;;;18.84;100.00
72055;BME280;59936;51.490;5.436;2022-08-01T00:26:42;101393.53;;;18.86;100.00
72055;BME280;59936;51.490;5.436;2022-08-01T00:26:47;101394.25;;;18.88;100.00
72055;BME280;59936;51.490;5.436;2022-08-01T00:26:52;101399.78;;;18.85;100.00
72055;BME280;59936;51.490;5.436;2022-08-01T00:26:58;101393.72;;;18.83;100.00
72055;BME280;59936;51.490;5.436;2022-08-01T00:27:03;101397.13;;;18.85;100.00
72055;BME280;59936;51.490;5.436;2022-08-01T00:27:08;101398.81;;;18.86;100.00
72055;BME280;59936;51.490;5.436;2022-08-01T00:27:14;101394.81;;;18.80;100.00
72055;BME280;59936;51.490;5.436;2022-08-01T00:27:19;101400.72;;;18.84;100.00
72055;BME280;59936;51.490;5.436;2022-08-01T00:27:25;101393.53;;;18.86;100.00
72055;BME280;59936;51.490;5.436;2022-08-01T00:27:31;101392.56;;;18.87;100.00
72055;BME280;59936;51.490;5.436;2022-08-01T00:27:36;101389.31;;;18.83;100.00
72055;BME280;59936;51.490;5.436;2022-08-01T00:27:42;101393.94;;;18.79;100.00
72055;BME280;59936;51.490;5.436;2022-08-01T00:27:47;101399.22;;;18.79;100.00
72055;BME280;59936;51.490;5.436;2022-08-01T00:27:53;101392.06;;;18.82;100.00
72055;BME280;59936;51.490;5.436;2022-08-01T00:27:59;101390.13;;;18.84;100.00
72055;BME280;59936;51.490;5.436;2022-08-01T00:28:04;101393.63;;;18.84;100.00
72055;BME280;59936;51.490;5.436;2022-08-01T00:28:13;101391.09;;;18.83;100.00
72055;BME280;59936;51.490;5.436;2022-08-01T00:28:18;101401.66;;;18.83;100.00
72055;BME280;59936;51.490;5.436;2022-08-01T00:28:24;101393.31;;;18.76;100.00
72055;BME280;59936;51.490;5.436;2022-08-01T00:28:29;101386.56;;;18.72;100.00
72055;BME280;59936;51.490;5.436;2022-08-01T00:28:35;101389.28;;;18.70;100.00
72055;BME280;59936;51.490;5.436;2022-08-01T00:28:40;101387.38;;;18.72;100.00
72055;BME280;59936;51.490;5.436;2022-08-01T00:28:46;101390.25;;;18.69;100.00
72055;BME280;59936;51.490;5.436;2022-08-01T00:28:51;101392.34;;;18.64;100.00